createdAt,value
2023-01-17T00:00:18.566Z,63.25
2023-01-17T00:03:28.772Z,63.50
2023-01-17T00:06:58.202Z,62.69
2023-01-17T00:10:10.787Z,63.38
2023-01-17T00:13:18.993Z,63.00
2023-01-17T00:16:27.341Z,62.86
2023-01-17T00:19:53.324Z,63.43
2023-01-17T00:23:24.592Z,62.99
2023-01-17T00:26:33.221Z,62.94
2023-01-17T00:29:40.570Z,63.44
2023-01-17T00:32:47.795Z,62.68
2023-01-17T00:35:57.691Z,64.07
2023-01-17T00:39:06.145Z,63.57
2023-01-17T00:42:13.462Z,64.17
2023-01-17T00:45:39.397Z,64.47
2023-01-17T00:49:05.349Z,64.79
2023-01-17T00:52:31.256Z,65.82
2023-01-17T00:55:58.359Z,65.18
2023-01-17T00:59:24.267Z,66.17
2023-01-17T01:02:50.793Z,66.44
2023-01-17T01:06:17.040Z,66.98
2023-01-17T01:09:42.561Z,66.98
2023-01-17T01:13:09.924Z,67.39
2023-01-17T01:16:36.976Z,66.71
2023-01-17T01:20:02.682Z,65.74
2023-01-17T01:23:28.465Z,65.91
2023-01-17T01:26:54.370Z,65.06
2023-01-17T01:30:22.574Z,65.27
2023-01-17T01:33:29.634Z,65.68
2023-01-17T01:36:37.717Z,65.06
2023-01-17T01:39:45.907Z,64.68
2023-01-17T01:42:58.059Z,65.03
2023-01-17T01:46:11.071Z,64.94
2023-01-17T01:49:24.797Z,65.92
2023-01-17T01:52:37.944Z,66.22
2023-01-17T01:55:51.687Z,66.63
2023-01-17T01:59:03.942Z,67.76
2023-01-17T02:02:18.429Z,67.53
2023-01-17T02:05:29.219Z,67.85
2023-01-17T02:08:37.726Z,69.04
2023-01-17T02:11:48.022Z,68.68
2023-01-17T02:14:56.304Z,68.39
2023-01-17T02:18:21.660Z,68.90
2023-01-17T02:27:04.606Z,69.84
2023-01-17T02:30:35.074Z,69.89
2023-01-17T02:33:55.372Z,69.73
2023-01-17T02:37:13.963Z,69.84
2023-01-17T02:40:31.392Z,70.53
2023-01-17T02:43:41.494Z,69.17
2023-01-17T02:46:55.205Z,70.12
2023-01-17T02:50:10.039Z,70.25
2023-01-17T02:53:37.329Z,71.42
2023-01-17T02:57:02.370Z,72.00
2023-01-17T03:00:23.759Z,72.35
2023-01-17T03:03:44.583Z,71.18
2023-01-17T03:06:59.691Z,71.99
2023-01-17T03:10:11.013Z,72.76
2023-01-17T03:13:19.388Z,71.76
2023-01-17T03:16:32.539Z,71.64
2023-01-17T03:19:42.116Z,71.18
2023-01-17T03:22:50.620Z,70.51
2023-01-17T03:25:58.997Z,70.64
2023-01-17T03:29:07.157Z,70.27
2023-01-17T03:32:15.329Z,69.11
2023-01-17T03:35:24.991Z,68.81
2023-01-17T03:38:33.203Z,68.88
2023-01-17T03:41:41.369Z,67.94
2023-01-17T03:44:49.532Z,68.78
2023-01-17T03:48:00.407Z,67.81
2023-01-17T03:51:09.945Z,68.17
2023-01-17T03:54:18.082Z,68.02
2023-01-17T03:57:26.247Z,67.95
2023-01-17T04:00:34.355Z,68.09
2023-01-17T04:03:42.461Z,67.58
2023-01-17T04:06:51.869Z,69.10
2023-01-17T04:09:59.987Z,69.74
2023-01-17T04:13:08.517Z,69.92
2023-01-17T04:16:19.717Z,69.74
2023-01-17T04:19:28.095Z,70.09
2023-01-17T04:22:37.497Z,70.77
2023-01-17T04:25:46.196Z,71.64
2023-01-17T04:28:54.281Z,70.96
2023-01-17T04:32:02.401Z,71.20
2023-01-17T04:35:11.249Z,71.54
2023-01-17T04:38:20.835Z,72.18
2023-01-17T04:41:29.139Z,71.40
2023-01-17T04:44:37.179Z,72.08
2023-01-17T04:47:45.375Z,70.79
2023-01-17T04:50:53.477Z,72.43
2023-01-17T04:54:02.921Z,71.45
2023-01-17T04:57:11.341Z,71.18
2023-01-17T05:00:23.310Z,72.21
2023-01-17T05:03:32.628Z,72.09
2023-01-17T05:06:40.750Z,72.39
2023-01-17T05:09:50.114Z,72.93
2023-01-17T05:13:00.516Z,72.44
2023-01-17T05:16:09.313Z,73.23
2023-01-17T05:19:19.226Z,73.18
2023-01-17T05:22:28.474Z,73.53
2023-01-17T05:25:44.426Z,74.36
2023-01-17T05:28:53.234Z,74.16
2023-01-17T05:32:01.607Z,75.18
2023-01-17T05:35:11.102Z,75.59
2023-01-17T05:38:19.831Z,75.09
2023-01-17T05:41:29.353Z,76.70
2023-01-17T05:44:38.429Z,75.70
2023-01-17T05:47:48.516Z,75.88
2023-01-17T05:50:56.553Z,77.02
2023-01-17T05:54:05.701Z,76.97
2023-01-17T05:57:15.916Z,78.46
2023-01-17T06:00:25.722Z,76.63
2023-01-17T06:03:34.247Z,77.74
2023-01-17T06:06:42.458Z,77.77
2023-01-17T06:09:50.951Z,77.98
2023-01-17T06:13:06.787Z,77.25
2023-01-17T06:16:15.368Z,77.34
2023-01-17T06:19:23.693Z,77.49
2023-01-17T06:22:32.274Z,77.00
2023-01-17T06:25:43.576Z,77.32
2023-01-17T06:28:54.192Z,76.81
2023-01-17T06:32:03.024Z,77.23
2023-01-17T06:35:11.240Z,77.02
2023-01-17T06:38:20.455Z,76.84
2023-01-17T06:41:28.566Z,77.61
2023-01-17T06:44:38.279Z,77.50
2023-01-17T06:47:47.087Z,76.89
2023-01-17T06:50:55.238Z,78.28
2023-01-17T06:54:06.099Z,78.05
2023-01-17T06:57:14.191Z,77.86
2023-01-17T07:00:24.424Z,78.08
2023-01-17T07:03:32.704Z,78.74
2023-01-17T07:06:40.758Z,78.31
2023-01-17T07:09:48.843Z,78.72
2023-01-17T07:13:00.883Z,78.73
2023-01-17T07:16:10.581Z,78.10
2023-01-17T07:19:18.749Z,78.40
2023-01-17T07:22:26.905Z,78.12
2023-01-17T07:25:35.067Z,77.91
2023-01-17T07:28:43.195Z,78.76
2023-01-17T07:31:52.613Z,77.95
2023-01-17T07:35:00.745Z,78.34
2023-01-17T07:38:11.685Z,78.27
2023-01-17T07:41:19.782Z,78.30
2023-01-17T07:44:28.125Z,77.55
2023-01-17T07:47:37.749Z,76.72
2023-01-17T07:50:46.137Z,75.65
2023-01-17T07:53:54.285Z,76.86
2023-01-17T07:57:02.950Z,76.44
2023-01-17T08:00:12.789Z,75.50
2023-01-17T08:03:22.432Z,74.00
2023-01-17T08:06:30.971Z,72.56
2023-01-17T08:09:39.023Z,71.93
2023-01-17T08:12:47.797Z,72.16
2023-01-17T08:15:55.878Z,71.28
2023-01-17T08:19:05.389Z,71.60
2023-01-17T08:22:13.645Z,70.80
2023-01-17T08:25:22.300Z,71.02
2023-01-17T08:28:30.429Z,70.71
2023-01-17T08:31:38.601Z,70.70
2023-01-17T08:34:48.173Z,69.37
2023-01-17T08:37:57.631Z,68.84
2023-01-17T08:41:06.435Z,68.76
2023-01-17T08:44:15.855Z,68.76
2023-01-17T08:47:24.262Z,67.93
2023-01-17T08:50:33.707Z,66.67
2023-01-17T08:53:42.437Z,66.21
2023-01-17T08:56:52.758Z,66.13
2023-01-17T09:00:00.914Z,64.70
2023-01-17T09:03:14.411Z,64.79
2023-01-17T09:06:24.002Z,65.71
2023-01-17T09:09:32.081Z,64.03
2023-01-17T09:12:40.389Z,63.81
2023-01-17T09:15:48.550Z,63.60
2023-01-17T09:18:58.270Z,63.98
2023-01-17T09:22:07.950Z,63.55
2023-01-17T09:25:17.209Z,62.51
2023-01-17T09:28:26.539Z,61.70
2023-01-17T09:31:35.805Z,61.54
2023-01-17T09:34:44.276Z,61.33
2023-01-17T09:37:55.825Z,59.81
2023-01-17T09:41:22.003Z,58.61
2023-01-17T09:44:39.991Z,56.58
2023-01-17T09:47:53.394Z,57.19
2023-01-17T09:51:09.011Z,57.46
2023-01-17T09:54:24.304Z,59.16
2023-01-17T09:57:45.610Z,58.65
2023-01-17T10:01:10.035Z,57.34
2023-01-17T10:04:48.983Z,57.75
2023-01-17T10:08:18.490Z,56.37
2023-01-17T10:11:54.460Z,56.15
2023-01-17T10:15:32.507Z,56.76
2023-01-17T10:19:23.595Z,54.54
2023-01-17T10:22:51.777Z,55.12
2023-01-17T10:26:03.521Z,54.07
2023-01-17T10:29:20.252Z,54.05
2023-01-17T10:32:34.420Z,54.53
2023-01-17T10:35:55.395Z,54.29
2023-01-17T10:39:20.375Z,54.54
2023-01-17T10:42:44.012Z,55.78
2023-01-17T10:45:57.696Z,55.44
2023-01-17T10:49:05.967Z,55.45
2023-01-17T10:52:27.276Z,56.90
2023-01-17T10:55:45.631Z,57.42
2023-01-17T10:59:17.108Z,57.15
2023-01-17T11:02:31.997Z,57.05
2023-01-17T11:05:42.802Z,57.57
2023-01-17T11:08:54.761Z,56.31
2023-01-17T11:12:03.150Z,55.91
2023-01-17T11:15:25.970Z,56.44
2023-01-17T11:18:40.416Z,55.58
2023-01-17T11:21:57.592Z,56.51
2023-01-17T11:25:08.087Z,56.72
2023-01-17T11:28:26.216Z,55.53
2023-01-17T11:31:34.353Z,55.86
2023-01-17T11:34:43.889Z,55.09
2023-01-17T11:38:04.397Z,55.39
2023-01-17T11:41:22.175Z,54.42
2023-01-17T11:44:33.417Z,55.39
2023-01-17T11:47:41.721Z,54.62
2023-01-17T11:50:59.088Z,54.26
2023-01-17T11:54:24.828Z,55.16
2023-01-17T11:57:36.492Z,54.17
2023-01-17T12:00:53.213Z,53.51
2023-01-17T12:04:25.398Z,53.45
2023-01-17T12:07:48.361Z,53.94
2023-01-17T12:11:08.755Z,53.95
2023-01-17T12:14:31.168Z,53.93
2023-01-17T12:18:14.159Z,52.78
2023-01-17T12:21:41.687Z,53.35
2023-01-17T12:25:18.791Z,53.31
2023-01-17T12:29:03.382Z,54.33
2023-01-17T12:32:55.339Z,54.34
2023-01-17T12:36:17.588Z,54.29
2023-01-17T12:39:38.164Z,55.21
2023-01-17T12:42:57.801Z,55.47
2023-01-17T12:46:16.982Z,56.16
2023-01-17T12:49:38.682Z,56.33
2023-01-17T12:52:58.581Z,55.38
2023-01-17T12:56:16.243Z,55.32
2023-01-17T12:59:37.918Z,56.23
2023-01-17T13:02:55.016Z,56.52
2023-01-17T13:06:07.076Z,56.45
2023-01-17T13:09:22.757Z,55.69
2023-01-17T13:12:38.762Z,56.13
2023-01-17T13:15:52.374Z,56.64
2023-01-17T13:19:34.790Z,56.10
2023-01-17T13:26:33.746Z,54.87
2023-01-17T13:29:58.173Z,55.15
2023-01-17T13:33:33.928Z,56.08
2023-01-17T13:37:05.501Z,56.55
2023-01-17T13:40:51.885Z,57.16
2023-01-17T13:44:28.951Z,56.64
2023-01-17T13:47:41.958Z,57.01
2023-01-17T13:50:54.028Z,56.34
2023-01-17T13:54:04.569Z,55.42
2023-01-17T13:57:41.881Z,55.48
2023-01-17T14:00:54.858Z,55.81
2023-01-17T14:04:07.279Z,55.98
2023-01-17T14:07:27.379Z,56.11
2023-01-17T14:10:41.408Z,57.00
2023-01-17T14:13:51.679Z,57.75
2023-01-17T14:17:51.701Z,56.96
2023-01-17T14:21:14.341Z,57.55
2023-01-17T14:24:26.141Z,57.80
2023-01-17T14:27:38.593Z,59.27
2023-01-17T14:30:54.184Z,58.79
2023-01-17T14:34:14.055Z,59.61
2023-01-17T14:37:39.359Z,59.48
2023-01-17T14:40:56.741Z,60.27
2023-01-17T14:44:05.371Z,61.03
2023-01-17T14:47:15.892Z,61.84
2023-01-17T14:50:29.243Z,62.12
2023-01-17T14:53:37.635Z,63.08
2023-01-17T14:56:49.357Z,63.67
2023-01-17T15:00:19.890Z,65.04
2023-01-17T15:03:29.700Z,64.99
2023-01-17T15:06:41.673Z,64.41
2023-01-17T15:09:49.897Z,64.92
2023-01-17T15:13:10.346Z,65.86
2023-01-17T15:16:24.173Z,66.28
2023-01-17T15:19:43.458Z,65.94
2023-01-17T15:22:51.748Z,66.07
2023-01-17T15:26:07.327Z,66.15
2023-01-17T15:29:25.784Z,66.78
2023-01-17T15:32:34.462Z,66.55
2023-01-17T15:35:42.801Z,66.35
2023-01-17T15:38:59.636Z,67.49
2023-01-17T15:42:21.641Z,66.97
2023-01-17T15:45:34.057Z,67.07
2023-01-17T15:48:44.952Z,67.98
2023-01-17T15:51:56.059Z,68.01
2023-01-17T15:55:15.495Z,68.57
2023-01-17T15:58:27.174Z,67.94
2023-01-17T16:01:36.863Z,68.66
2023-01-17T16:04:45.390Z,69.11
2023-01-17T16:07:56.413Z,68.85
2023-01-17T16:11:06.602Z,69.31
2023-01-17T16:14:14.790Z,70.06
2023-01-17T16:17:24.521Z,70.73
2023-01-17T16:20:38.486Z,71.04
2023-01-17T16:23:46.826Z,70.67
2023-01-17T16:26:55.169Z,70.83
2023-01-17T16:30:03.501Z,70.99
2023-01-17T16:33:13.984Z,70.73
2023-01-17T16:36:23.059Z,70.96
2023-01-17T16:39:34.364Z,70.96
2023-01-17T16:42:42.772Z,71.07
2023-01-17T16:45:54.048Z,71.25
2023-01-17T16:49:05.153Z,71.30
2023-01-17T16:52:13.791Z,71.79
2023-01-17T16:55:25.056Z,70.84
2023-01-17T16:58:33.348Z,70.72
2023-01-17T17:01:41.589Z,71.71
2023-01-17T17:04:52.741Z,72.01
2023-01-17T17:08:02.200Z,71.40
2023-01-17T17:11:14.889Z,71.84
2023-01-17T17:14:23.079Z,72.41
2023-01-17T17:17:31.377Z,72.74
2023-01-17T17:20:40.976Z,72.89
2023-01-17T17:23:52.888Z,73.37
2023-01-17T17:27:02.573Z,73.72
2023-01-17T17:30:13.787Z,74.06
2023-01-17T17:33:21.838Z,74.53
2023-01-17T17:36:32.302Z,74.96
2023-01-17T17:39:42.209Z,74.43
2023-01-17T17:42:50.304Z,73.19
2023-01-17T17:45:58.332Z,73.26
2023-01-17T17:49:06.883Z,73.84
2023-01-17T17:52:16.632Z,73.13
2023-01-17T17:55:25.230Z,73.55
2023-01-17T17:58:36.004Z,73.06
2023-01-17T18:01:44.124Z,72.37
2023-01-17T18:04:52.409Z,72.13
2023-01-17T18:08:01.984Z,72.63
2023-01-17T18:11:15.054Z,71.93
2023-01-17T18:14:24.361Z,72.22
2023-01-17T18:17:32.422Z,72.11
2023-01-17T18:20:40.680Z,73.41
2023-01-17T18:23:52.663Z,73.78
2023-01-17T18:27:01.680Z,73.58
2023-01-17T18:30:12.550Z,74.05
2023-01-17T18:33:22.015Z,74.94
2023-01-17T18:36:30.694Z,75.08
2023-01-17T18:39:40.692Z,74.17
2023-01-17T18:42:50.229Z,73.83
2023-01-17T18:45:58.792Z,73.03
2023-01-17T18:49:07.660Z,73.39
2023-01-17T18:52:17.585Z,72.98
2023-01-17T18:55:27.675Z,73.01
2023-01-17T18:58:40.955Z,73.00
2023-01-17T19:01:49.416Z,72.92
2023-01-17T19:04:58.069Z,73.39
2023-01-17T19:08:06.247Z,74.07
2023-01-17T19:11:16.558Z,73.99
2023-01-17T19:14:25.414Z,73.60
2023-01-17T19:17:33.666Z,73.31
2023-01-17T19:20:41.956Z,73.03
2023-01-17T19:23:51.871Z,73.39
2023-01-17T19:27:02.760Z,72.46
2023-01-17T19:30:13.180Z,72.90
2023-01-17T19:33:21.404Z,72.78
2023-01-17T19:36:34.488Z,72.37
2023-01-17T19:39:42.720Z,73.86
2023-01-17T19:42:52.312Z,73.91
2023-01-17T19:46:01.379Z,73.62
2023-01-17T19:49:10.541Z,72.93
2023-01-17T19:52:21.935Z,73.77
2023-01-17T19:55:30.373Z,73.56
2023-01-17T19:58:40.274Z,73.11
2023-01-17T20:01:49.356Z,74.15
2023-01-17T20:04:57.759Z,73.60
2023-01-17T20:08:09.898Z,73.68
2023-01-17T20:11:21.870Z,73.34
2023-01-17T20:14:31.503Z,74.49
2023-01-17T20:17:39.797Z,74.80
2023-01-17T20:20:57.025Z,75.54
2023-01-17T20:24:08.880Z,76.04
2023-01-17T20:27:18.999Z,76.79
2023-01-17T20:30:31.851Z,77.05
2023-01-17T20:33:40.948Z,76.50
2023-01-17T20:36:49.378Z,75.99
2023-01-17T20:39:58.046Z,77.96
2023-01-17T20:43:06.533Z,77.18
2023-01-17T20:46:18.998Z,77.56
2023-01-17T20:49:27.322Z,77.32
2023-01-17T20:52:35.835Z,76.04
2023-01-17T20:55:44.759Z,77.19
2023-01-17T20:58:54.423Z,77.06
2023-01-17T21:02:05.896Z,77.21
2023-01-17T21:05:16.553Z,77.56
2023-01-17T21:08:26.543Z,77.52
2023-01-17T21:11:37.097Z,77.58
2023-01-17T21:14:45.959Z,77.60
2023-01-17T21:17:56.316Z,76.44
2023-01-17T21:21:07.581Z,75.91
2023-01-17T21:24:20.627Z,75.68
2023-01-17T21:27:28.802Z,75.88
2023-01-17T21:30:37.702Z,75.64
2023-01-17T21:33:48.141Z,76.07
2023-01-17T21:36:56.436Z,76.49
2023-01-17T21:40:05.503Z,76.85
2023-01-17T21:43:14.645Z,76.21
2023-01-17T21:46:22.999Z,75.61
2023-01-17T21:49:32.732Z,75.22
2023-01-17T21:52:41.719Z,76.19
2023-01-17T21:56:08.120Z,76.34
2023-01-17T21:59:16.298Z,75.89
2023-01-17T22:02:25.032Z,76.15
2023-01-17T22:05:35.194Z,76.54
2023-01-17T22:08:43.945Z,75.79
2023-01-17T22:11:52.096Z,76.90
2023-01-17T22:15:00.385Z,77.57
2023-01-17T22:18:09.838Z,77.68
2023-01-17T22:21:22.204Z,78.40
2023-01-17T22:24:30.540Z,78.03
2023-01-17T22:27:39.021Z,78.85
2023-01-17T22:30:47.179Z,78.81
2023-01-17T22:33:58.572Z,77.75
2023-01-17T22:37:10.035Z,78.70
2023-01-17T22:40:19.065Z,77.43
2023-01-17T22:43:28.749Z,77.52
2023-01-17T22:46:39.262Z,77.29
2023-01-17T22:49:47.663Z,77.48
2023-01-17T22:52:57.733Z,77.85
2023-01-17T22:56:08.772Z,77.78
2023-01-17T22:59:17.619Z,78.15
2023-01-17T23:02:25.924Z,78.28
2023-01-17T23:05:34.265Z,79.02
2023-01-17T23:08:46.242Z,79.06
2023-01-17T23:11:56.280Z,78.01
2023-01-17T23:15:22.442Z,78.42
2023-01-17T23:18:48.007Z,78.04
2023-01-17T23:22:17.540Z,78.18
2023-01-17T23:25:27.421Z,78.43
2023-01-17T23:28:34.742Z,76.94
2023-01-17T23:31:42.785Z,77.49
2023-01-17T23:34:52.136Z,78.17
2023-01-17T23:38:17.984Z,78.05
2023-01-17T23:41:53.630Z,76.17
2023-01-17T23:45:01.707Z,76.08
2023-01-17T23:48:10.734Z,76.25
2023-01-17T23:51:19.153Z,76.20
2023-01-17T23:54:27.329Z,75.67
2023-01-17T23:57:37.479Z,75.88
